createdAt,value
2023-02-22T00:00:24.225Z,2.53
2023-02-22T00:02:34.634Z,2.53
2023-02-22T00:04:43.204Z,2.63
2023-02-22T00:06:52.038Z,2.77
2023-02-22T00:09:02.690Z,2.57
2023-02-22T00:11:11.428Z,2.40
2023-02-22T00:13:23.226Z,1.67
2023-02-22T00:15:31.757Z,2.70
2023-02-22T00:17:42.541Z,2.27
2023-02-22T00:19:51.323Z,2.30
2023-02-22T00:22:00.593Z,2.93
2023-02-22T00:24:23.648Z,2.57
2023-02-22T00:26:36.000Z,2.90
2023-02-22T00:28:44.745Z,2.47
2023-02-22T00:30:55.224Z,2.97
2023-02-22T00:33:06.160Z,2.80
2023-02-22T00:35:15.267Z,2.67
2023-02-22T00:37:23.728Z,2.40
2023-02-22T00:39:32.540Z,2.57
2023-02-22T00:41:41.651Z,1.93
2023-02-22T00:43:51.116Z,1.60
2023-02-22T00:45:59.967Z,2.10
2023-02-22T00:48:12.738Z,1.90
2023-02-22T00:50:21.963Z,2.53
2023-02-22T00:52:30.585Z,2.37
2023-02-22T00:54:38.981Z,2.30
2023-02-22T00:56:47.740Z,2.37
2023-02-22T00:58:56.305Z,2.03
2023-02-22T01:01:04.730Z,2.33
2023-02-22T01:03:16.730Z,2.23
2023-02-22T01:05:30.411Z,2.10
2023-02-22T01:07:40.424Z,2.63
2023-02-22T01:09:49.304Z,2.27
2023-02-22T01:11:59.366Z,2.60
2023-02-22T01:14:09.805Z,2.27
2023-02-22T01:16:18.605Z,2.73
2023-02-22T01:18:29.418Z,2.20
2023-02-22T01:20:38.542Z,2.73
2023-02-22T01:22:51.325Z,2.37
2023-02-22T01:25:00.596Z,2.20
2023-02-22T01:27:09.091Z,2.70
2023-02-22T01:29:18.626Z,2.80
2023-02-22T01:31:27.748Z,2.80
2023-02-22T01:33:38.009Z,2.53
2023-02-22T01:35:47.056Z,2.80
2023-02-22T01:37:56.356Z,2.50
2023-02-22T01:40:08.591Z,2.50
2023-02-22T01:42:17.212Z,3.00
2023-02-22T01:44:31.981Z,2.60
2023-02-22T01:46:41.016Z,2.50
2023-02-22T01:48:54.852Z,2.70
2023-02-22T01:51:11.194Z,2.57
2023-02-22T01:53:23.425Z,2.80
2023-02-22T01:55:33.618Z,2.53
2023-02-22T01:57:42.551Z,1.90
2023-02-22T01:59:55.067Z,2.73
2023-02-22T02:02:05.750Z,2.60
2023-02-22T02:04:21.091Z,2.80
2023-02-22T02:06:33.045Z,2.80
2023-02-22T02:08:51.791Z,2.30
2023-02-22T02:11:02.779Z,2.70
2023-02-22T02:13:11.733Z,3.13
2023-02-22T02:15:29.182Z,2.40
2023-02-22T02:17:38.410Z,2.50
2023-02-22T02:19:56.444Z,2.43
2023-02-22T02:22:22.350Z,2.53
2023-02-22T02:25:11.014Z,2.70
2023-02-22T02:27:23.504Z,2.40
2023-02-22T02:30:23.279Z,3.10
2023-02-22T02:32:46.166Z,2.60
2023-02-22T02:35:02.303Z,2.63
2023-02-22T02:37:13.522Z,1.63
2023-02-22T02:39:28.807Z,2.57
2023-02-22T02:41:41.702Z,2.70
2023-02-22T02:43:59.189Z,2.60
2023-02-22T02:46:13.696Z,2.73
2023-02-22T02:48:28.997Z,2.80
2023-02-22T02:50:41.918Z,2.80
2023-02-22T02:52:54.738Z,2.77
2023-02-22T02:55:05.554Z,2.63
2023-02-22T02:57:14.561Z,2.80
2023-02-22T02:59:28.600Z,2.90
2023-02-22T03:01:51.935Z,2.70
2023-02-22T03:04:35.810Z,3.17
2023-02-22T03:07:13.628Z,3.00
2023-02-22T03:09:37.314Z,2.60
2023-02-22T03:12:01.595Z,2.63
2023-02-22T03:14:18.449Z,2.63
2023-02-22T03:16:35.791Z,3.23
2023-02-22T03:18:52.452Z,2.97
2023-02-22T03:21:16.872Z,2.73
2023-02-22T03:23:29.752Z,2.47
2023-02-22T03:25:41.871Z,2.63
2023-02-22T03:27:53.392Z,2.63
2023-02-22T03:30:07.522Z,2.83
2023-02-22T03:32:18.431Z,2.70
2023-02-22T03:34:33.980Z,2.60
2023-02-22T03:36:49.179Z,2.50
2023-02-22T03:39:00.505Z,2.53
2023-02-22T03:41:11.366Z,2.43
2023-02-22T03:43:26.838Z,2.83
2023-02-22T03:45:38.403Z,2.80
2023-02-22T03:47:50.728Z,2.67
2023-02-22T03:50:07.160Z,2.87
2023-02-22T03:52:18.329Z,2.73
2023-02-22T03:54:27.563Z,2.67
2023-02-22T03:56:47.264Z,2.70
2023-02-22T03:58:57.143Z,2.70
2023-02-22T04:01:06.070Z,2.77
2023-02-22T04:03:14.841Z,2.70
2023-02-22T04:05:24.978Z,2.80
2023-02-22T04:07:35.094Z,2.77
2023-02-22T04:09:44.197Z,2.17
2023-02-22T04:11:52.923Z,2.60
2023-02-22T04:14:01.641Z,2.70
2023-02-22T04:16:10.123Z,3.30
2023-02-22T04:18:18.560Z,2.50
2023-02-22T04:20:27.212Z,3.27
2023-02-22T04:22:37.539Z,3.20
2023-02-22T04:24:46.961Z,3.00
2023-02-22T04:26:55.816Z,2.77
2023-02-22T04:29:04.878Z,2.90
2023-02-22T04:31:13.897Z,3.20
2023-02-22T04:33:22.927Z,3.50
2023-02-22T04:35:33.713Z,3.00
2023-02-22T04:37:45.689Z,3.13
2023-02-22T04:39:54.328Z,3.10
2023-02-22T04:42:03.372Z,2.97
2023-02-22T04:44:12.068Z,3.00
2023-02-22T04:46:20.448Z,3.30
2023-02-22T04:48:28.976Z,3.27
2023-02-22T04:50:37.645Z,3.07
2023-02-22T04:52:47.995Z,3.03
2023-02-22T04:54:56.472Z,3.27
2023-02-22T04:57:05.452Z,3.00
2023-02-22T04:59:14.460Z,3.67
2023-02-22T05:01:24.269Z,3.00
2023-02-22T05:03:33.095Z,3.43
2023-02-22T05:05:41.667Z,3.17
2023-02-22T05:07:52.880Z,3.00
2023-02-22T05:10:03.242Z,3.40
2023-02-22T05:12:12.466Z,3.77
2023-02-22T05:14:21.057Z,3.37
2023-02-22T05:16:30.399Z,3.63
2023-02-22T05:18:38.938Z,4.07
2023-02-22T05:20:47.381Z,3.90
2023-02-22T05:22:58.453Z,3.43
2023-02-22T05:25:08.473Z,3.27
2023-02-22T05:27:16.928Z,2.87
2023-02-22T05:29:25.753Z,3.77
2023-02-22T05:31:35.087Z,3.10
2023-02-22T05:33:43.585Z,3.90
2023-02-22T05:35:52.326Z,3.80
2023-02-22T05:38:03.697Z,3.13
2023-02-22T05:40:14.668Z,3.50
2023-02-22T05:42:23.690Z,3.20
2023-02-22T05:44:32.474Z,3.70
2023-02-22T05:46:41.422Z,3.33
2023-02-22T05:48:49.879Z,3.80
2023-02-22T05:50:58.895Z,3.53
2023-02-22T05:53:09.639Z,4.90
2023-02-22T05:55:20.172Z,4.63
2023-02-22T05:57:28.832Z,3.63
2023-02-22T05:59:37.608Z,4.23
2023-02-22T06:01:46.490Z,3.87
2023-02-22T06:03:55.255Z,3.63
2023-02-22T06:06:04.957Z,4.80
2023-02-22T06:08:15.316Z,4.13
2023-02-22T06:10:25.698Z,4.67
2023-02-22T06:12:34.332Z,4.20
2023-02-22T06:14:46.253Z,4.50
2023-02-22T06:16:55.518Z,4.20
2023-02-22T06:19:03.938Z,3.70
2023-02-22T06:21:12.352Z,4.30
2023-02-22T06:23:22.608Z,4.23
2023-02-22T06:25:34.140Z,4.07
2023-02-22T06:27:42.523Z,3.80
2023-02-22T06:29:50.888Z,4.17
2023-02-22T06:31:59.710Z,4.30
2023-02-22T06:34:08.035Z,4.87
2023-02-22T06:36:17.028Z,3.37
2023-02-22T06:38:28.843Z,3.97
2023-02-22T06:40:37.434Z,4.20
2023-02-22T06:42:46.296Z,4.40
2023-02-22T06:44:55.423Z,4.80
2023-02-22T06:47:04.093Z,4.40
2023-02-22T06:49:14.660Z,4.73
2023-02-22T06:51:24.059Z,4.87
2023-02-22T06:53:34.493Z,4.90
2023-02-22T06:55:43.642Z,5.87
2023-02-22T06:57:52.358Z,4.13
2023-02-22T07:00:00.849Z,4.50
2023-02-22T07:02:09.590Z,4.27
2023-02-22T07:04:18.724Z,4.60
2023-02-22T07:06:30.017Z,4.17
2023-02-22T07:08:40.195Z,4.40
2023-02-22T07:10:50.573Z,4.27
2023-02-22T07:12:59.277Z,4.73
2023-02-22T07:15:08.669Z,4.50
2023-02-22T07:17:17.381Z,4.10
2023-02-22T07:19:26.066Z,3.93
2023-02-22T07:21:35.233Z,4.23
2023-02-22T07:23:53.068Z,4.17
2023-02-22T07:26:01.956Z,4.40
2023-02-22T07:28:12.232Z,4.57
2023-02-22T07:30:25.367Z,4.27
2023-02-22T07:32:34.488Z,4.30
2023-02-22T07:34:43.542Z,3.77
2023-02-22T07:36:52.281Z,4.40
2023-02-22T07:39:02.077Z,4.77
2023-02-22T07:41:11.438Z,4.03
2023-02-22T07:43:21.619Z,4.23
2023-02-22T07:45:32.288Z,4.13
2023-02-22T07:47:40.937Z,4.00
2023-02-22T07:49:50.366Z,4.33
2023-02-22T07:51:59.037Z,3.83
2023-02-22T07:54:09.772Z,3.93
2023-02-22T07:56:18.431Z,3.53
2023-02-22T07:58:28.952Z,3.87
2023-02-22T08:00:39.783Z,3.73
2023-02-22T08:02:49.385Z,3.73
2023-02-22T08:04:57.775Z,3.90
2023-02-22T08:07:06.354Z,3.77
2023-02-22T08:09:16.208Z,4.13
2023-02-22T08:11:25.472Z,3.70
2023-02-22T08:13:34.537Z,3.70
2023-02-22T08:15:44.470Z,3.80
2023-02-22T08:17:53.597Z,3.27
2023-02-22T08:20:02.267Z,3.90
2023-02-22T08:22:11.240Z,3.63
2023-02-22T08:24:21.682Z,3.43
2023-02-22T08:26:30.072Z,4.30
2023-02-22T08:28:38.924Z,3.60
2023-02-22T08:30:47.939Z,3.47
2023-02-22T08:32:57.170Z,3.90
2023-02-22T08:35:06.626Z,3.77
2023-02-22T08:37:15.669Z,3.87
2023-02-22T08:39:26.238Z,3.60
2023-02-22T08:41:35.976Z,3.80
2023-02-22T08:43:44.487Z,3.20
2023-02-22T08:45:56.169Z,3.10
2023-02-22T08:48:06.437Z,3.07
2023-02-22T08:50:20.497Z,3.73
2023-02-22T08:52:30.616Z,3.20
2023-02-22T08:54:40.579Z,3.40
2023-02-22T08:56:50.645Z,3.37
2023-02-22T08:58:59.375Z,3.57
2023-02-22T09:01:07.897Z,3.77
2023-02-22T09:03:17.378Z,3.13
2023-02-22T09:05:26.269Z,3.00
2023-02-22T09:07:35.080Z,3.50
2023-02-22T09:09:46.542Z,3.63
2023-02-22T09:11:55.277Z,2.80
2023-02-22T09:14:04.280Z,3.13
2023-02-22T09:16:13.180Z,2.93
2023-02-22T09:18:21.930Z,3.10
2023-02-22T09:20:31.349Z,3.10
2023-02-22T09:22:40.481Z,3.20
2023-02-22T09:24:50.695Z,3.67
2023-02-22T09:26:59.954Z,3.30
2023-02-22T09:29:09.996Z,2.90
2023-02-22T09:31:19.182Z,2.93
2023-02-22T09:33:28.182Z,3.20
2023-02-22T09:35:37.182Z,3.13
2023-02-22T09:37:45.700Z,3.17
2023-02-22T09:39:55.749Z,2.90
2023-02-22T09:42:11.079Z,2.60
2023-02-22T09:44:28.387Z,2.87
2023-02-22T09:46:42.067Z,3.20
2023-02-22T09:49:01.100Z,2.57
2023-02-22T09:51:18.413Z,2.60
2023-02-22T09:53:36.267Z,2.90
2023-02-22T09:55:50.996Z,2.63
2023-02-22T09:58:02.638Z,3.40
2023-02-22T10:00:20.112Z,3.07
2023-02-22T10:02:32.296Z,2.73
2023-02-22T10:04:47.569Z,3.00
2023-02-22T10:07:07.327Z,3.07
2023-02-22T10:09:16.056Z,2.83
2023-02-22T10:11:45.104Z,2.70
2023-02-22T10:14:01.508Z,3.03
2023-02-22T10:16:19.243Z,2.90
2023-02-22T10:19:00.137Z,3.10
2023-02-22T10:21:20.028Z,3.30
2023-02-22T10:23:36.592Z,3.20
2023-02-22T10:25:48.058Z,2.80
2023-02-22T10:28:03.924Z,2.43
2023-02-22T10:30:25.314Z,3.13
2023-02-22T10:32:45.555Z,2.90
2023-02-22T10:34:56.048Z,2.77
2023-02-22T10:37:18.690Z,3.17
2023-02-22T10:39:32.682Z,2.77
2023-02-22T10:41:52.681Z,3.07
2023-02-22T10:44:03.676Z,2.93
2023-02-22T10:46:16.863Z,3.10
2023-02-22T10:48:28.556Z,3.20
2023-02-22T10:50:40.945Z,3.50
2023-02-22T10:52:49.935Z,2.87
2023-02-22T10:55:14.085Z,2.70
2023-02-22T10:57:27.867Z,3.13
2023-02-22T10:59:40.701Z,3.40
2023-02-22T11:01:50.125Z,3.30
2023-02-22T11:04:05.866Z,3.30
2023-02-22T11:06:22.205Z,3.30
2023-02-22T11:08:33.332Z,2.97
2023-02-22T11:10:43.598Z,3.87
2023-02-22T11:12:53.728Z,3.40
2023-02-22T11:15:30.024Z,3.30
2023-02-22T11:17:38.935Z,3.30
2023-02-22T11:19:51.898Z,3.53
2023-02-22T11:22:11.829Z,3.43
2023-02-22T11:24:24.396Z,3.40
2023-02-22T11:26:41.216Z,3.20
2023-02-22T11:28:56.290Z,3.80
2023-02-22T11:31:16.832Z,3.60
2023-02-22T11:33:29.589Z,3.47
2023-02-22T11:35:41.367Z,4.00
2023-02-22T11:37:50.117Z,3.30
2023-02-22T11:40:20.133Z,4.07
2023-02-22T11:42:29.653Z,3.47
2023-02-22T11:44:40.142Z,3.83
2023-02-22T11:46:50.548Z,3.87
2023-02-22T11:49:02.390Z,3.73
2023-02-22T11:51:23.438Z,4.17
2023-02-22T11:53:49.746Z,4.27
2023-02-22T11:56:28.438Z,4.20
2023-02-22T11:58:50.203Z,4.40
2023-02-22T12:01:07.363Z,5.60
2023-02-22T12:03:29.873Z,4.67
2023-02-22T12:06:02.130Z,4.50
2023-02-22T12:08:22.149Z,4.53
2023-02-22T12:10:47.311Z,5.27
2023-02-22T12:13:11.879Z,5.40
2023-02-22T12:15:29.613Z,5.50
2023-02-22T12:18:06.011Z,4.83
2023-02-22T12:20:31.600Z,4.10
2023-02-22T12:22:54.742Z,4.50
2023-02-22T12:25:09.762Z,4.80
2023-02-22T12:27:24.429Z,5.37
2023-02-22T12:29:39.332Z,5.63
2023-02-22T12:31:52.204Z,5.50
2023-02-22T12:34:08.181Z,5.00
2023-02-22T12:36:23.096Z,4.23
2023-02-22T12:38:38.330Z,6.57
2023-02-22T12:40:54.431Z,5.60
2023-02-22T12:43:10.697Z,4.83
2023-02-22T12:45:35.477Z,9.03
2023-02-22T12:47:50.603Z,5.17
2023-02-22T12:50:05.685Z,5.77
2023-02-22T12:52:38.088Z,3.90
2023-02-22T12:54:52.627Z,4.20
2023-02-22T12:57:09.907Z,4.17
2023-02-22T12:59:24.809Z,4.30
2023-02-22T13:01:39.407Z,4.43
2023-02-22T13:03:49.276Z,4.57
2023-02-22T13:06:09.650Z,4.77
2023-02-22T13:08:32.144Z,4.83
2023-02-22T13:10:59.543Z,5.03
2023-02-22T13:13:17.776Z,4.37
2023-02-22T13:15:34.590Z,4.10
2023-02-22T13:17:51.656Z,4.27
2023-02-22T13:20:06.275Z,3.53
2023-02-22T13:22:20.705Z,4.57
2023-02-22T13:24:41.746Z,4.07
2023-02-22T13:26:54.869Z,4.13
2023-02-22T13:29:10.213Z,3.70
2023-02-22T13:31:37.658Z,3.27
2023-02-22T13:34:05.074Z,4.00
2023-02-22T13:36:28.241Z,3.90
2023-02-22T13:39:21.761Z,4.33
2023-02-22T13:42:00.523Z,3.83
2023-02-22T13:44:38.181Z,3.67
2023-02-22T13:47:09.859Z,3.80
2023-02-22T13:49:40.345Z,4.47
2023-02-22T13:51:51.911Z,4.07
2023-02-22T13:54:05.905Z,4.60
2023-02-22T13:56:16.313Z,4.40
2023-02-22T13:58:27.441Z,3.97
2023-02-22T14:00:49.005Z,4.87
2023-02-22T14:03:06.234Z,4.43
2023-02-22T14:05:50.032Z,4.00
2023-02-22T14:07:59.064Z,4.33
2023-02-22T14:10:33.397Z,3.77
2023-02-22T14:12:51.674Z,4.30
2023-02-22T14:15:29.168Z,4.23
2023-02-22T14:17:39.618Z,4.30
2023-02-22T14:20:21.030Z,3.73
2023-02-22T14:22:30.927Z,3.20
2023-02-22T14:24:48.179Z,3.87
2023-02-22T14:27:01.061Z,4.00
2023-02-22T14:29:21.364Z,4.23
2023-02-22T14:31:37.232Z,3.70
2023-02-22T14:34:02.895Z,4.03
2023-02-22T14:36:11.394Z,3.90
2023-02-22T14:38:22.609Z,3.93
2023-02-22T14:40:33.077Z,4.07
2023-02-22T14:42:47.510Z,4.60
2023-02-22T14:45:01.469Z,5.40
2023-02-22T14:47:21.310Z,4.23
2023-02-22T14:49:34.292Z,4.87
2023-02-22T14:51:45.667Z,4.70
2023-02-22T14:53:57.938Z,4.03
2023-02-22T14:56:12.030Z,4.23
2023-02-22T14:58:25.821Z,3.73
2023-02-22T15:00:41.981Z,4.10
2023-02-22T15:02:57.394Z,4.03
2023-02-22T15:05:06.357Z,3.67
2023-02-22T15:07:27.537Z,3.70
2023-02-22T15:09:37.797Z,4.20
2023-02-22T15:11:46.499Z,4.10
2023-02-22T15:13:57.881Z,5.37
2023-02-22T15:16:08.613Z,5.20
2023-02-22T15:18:24.553Z,4.60
2023-02-22T15:20:34.079Z,4.70
2023-02-22T15:22:42.890Z,4.37
2023-02-22T15:25:00.124Z,4.13
2023-02-22T15:27:14.156Z,5.20
2023-02-22T15:29:25.086Z,4.40
2023-02-22T15:31:35.123Z,3.80
2023-02-22T15:33:45.540Z,4.00
2023-02-22T15:35:59.636Z,4.53
2023-02-22T15:38:22.855Z,3.67
2023-02-22T15:40:33.392Z,4.00
2023-02-22T15:42:46.782Z,3.93
2023-02-22T15:44:56.463Z,3.53
2023-02-22T15:47:05.796Z,4.80
2023-02-22T15:49:24.728Z,6.37
2023-02-22T15:51:34.498Z,5.57
2023-02-22T15:53:46.241Z,5.83
2023-02-22T15:55:59.344Z,6.10
2023-02-22T15:58:12.786Z,5.07
2023-02-22T16:00:25.867Z,6.63
2023-02-22T16:02:38.862Z,4.77
2023-02-22T16:04:59.274Z,4.83
2023-02-22T16:07:17.146Z,4.77
2023-02-22T16:09:29.769Z,5.10
2023-02-22T16:11:43.423Z,4.30
2023-02-22T16:13:55.451Z,4.87
2023-02-22T16:16:06.343Z,5.00
2023-02-22T16:18:33.283Z,4.63
2023-02-22T16:20:44.149Z,5.17
2023-02-22T16:22:53.014Z,4.87
2023-02-22T16:25:25.191Z,4.17
2023-02-22T16:27:47.651Z,4.33
2023-02-22T16:30:25.758Z,4.80
2023-02-22T16:32:34.806Z,4.73
2023-02-22T16:34:43.504Z,5.60
2023-02-22T16:36:53.570Z,4.97
2023-02-22T16:39:02.536Z,4.30
2023-02-22T16:41:11.095Z,4.77
2023-02-22T16:43:23.490Z,4.43
2023-02-22T16:45:32.183Z,4.83
2023-02-22T16:47:40.844Z,4.70
2023-02-22T16:49:57.236Z,4.30
2023-02-22T16:52:09.410Z,4.53
2023-02-22T16:54:26.802Z,4.20
2023-02-22T16:56:35.578Z,4.63
2023-02-22T16:58:46.197Z,5.80
2023-02-22T17:00:55.449Z,4.97
2023-02-22T17:03:06.386Z,4.80
2023-02-22T17:05:16.847Z,5.53
2023-02-22T17:07:30.928Z,4.77
2023-02-22T17:09:40.794Z,4.57
2023-02-22T17:11:53.086Z,4.83
2023-02-22T17:14:01.789Z,5.53
2023-02-22T17:16:16.088Z,4.87
2023-02-22T17:18:29.053Z,4.57
2023-02-22T17:20:37.642Z,4.43
2023-02-22T17:22:47.983Z,4.30
2023-02-22T17:24:56.412Z,4.73
2023-02-22T17:27:05.397Z,4.13
2023-02-22T17:29:15.372Z,3.90
2023-02-22T17:31:33.588Z,4.90
2023-02-22T17:33:43.956Z,4.27
2023-02-22T17:35:52.688Z,4.73
2023-02-22T17:38:06.340Z,4.97
2023-02-22T17:40:16.335Z,4.50
2023-02-22T17:42:25.229Z,3.63
2023-02-22T17:44:35.397Z,3.90
2023-02-22T17:46:44.239Z,3.77
2023-02-22T17:48:54.103Z,3.83
2023-02-22T17:51:08.193Z,3.97
2023-02-22T17:53:22.120Z,3.50
2023-02-22T17:55:31.355Z,3.43
2023-02-22T17:57:44.132Z,4.47
2023-02-22T17:59:53.311Z,4.87
2023-02-22T18:02:03.463Z,3.97
2023-02-22T18:04:11.894Z,3.43
2023-02-22T18:06:24.982Z,4.50
2023-02-22T18:08:35.775Z,3.33
2023-02-22T18:10:45.055Z,3.97
2023-02-22T18:12:55.131Z,4.73
2023-02-22T18:15:03.776Z,4.67
2023-02-22T18:17:12.642Z,3.87
2023-02-22T18:19:23.371Z,3.43
2023-02-22T18:21:32.839Z,3.17
2023-02-22T18:23:44.709Z,3.80
2023-02-22T18:26:09.037Z,3.50
2023-02-22T18:28:20.535Z,3.10
2023-02-22T18:30:29.885Z,3.40
2023-02-22T18:32:38.643Z,5.20
2023-02-22T18:34:47.253Z,3.77
2023-02-22T18:36:55.950Z,3.80
2023-02-22T18:39:11.812Z,3.77
2023-02-22T18:41:25.613Z,3.70
2023-02-22T18:43:35.820Z,4.23
2023-02-22T18:45:45.095Z,4.33
2023-02-22T18:47:53.828Z,4.90
2023-02-22T18:50:02.422Z,4.30
2023-02-22T18:52:11.845Z,4.10
2023-02-22T18:54:22.320Z,4.23
2023-02-22T18:56:31.248Z,5.20
2023-02-22T18:58:39.933Z,4.10
2023-02-22T19:00:50.955Z,5.13
2023-02-22T19:03:00.939Z,4.17
2023-02-22T19:05:10.182Z,4.20
2023-02-22T19:07:20.208Z,4.53
2023-02-22T19:09:32.124Z,5.07
2023-02-22T19:11:45.244Z,4.03
2023-02-22T19:13:55.785Z,4.10
2023-02-22T19:16:06.001Z,4.30
2023-02-22T19:18:14.688Z,4.07
2023-02-22T19:20:25.529Z,3.97
2023-02-22T19:22:34.889Z,3.90
2023-02-22T19:24:45.085Z,3.97
2023-02-22T19:26:57.645Z,3.67
2023-02-22T19:29:08.582Z,4.60
2023-02-22T19:31:18.937Z,3.97
2023-02-22T19:33:29.784Z,4.40
2023-02-22T19:35:39.022Z,4.00
2023-02-22T19:37:48.258Z,4.27
2023-02-22T19:39:58.843Z,3.90
2023-02-22T19:42:09.811Z,4.33
2023-02-22T19:44:18.546Z,4.13
2023-02-22T19:46:27.151Z,4.90
2023-02-22T19:48:35.975Z,4.53
2023-02-22T19:50:49.408Z,4.23
2023-02-22T19:52:57.974Z,3.67
2023-02-22T19:55:13.250Z,4.00
2023-02-22T19:57:23.678Z,3.77
2023-02-22T19:59:32.029Z,3.97
2023-02-22T20:01:44.212Z,3.90
2023-02-22T20:03:54.522Z,4.37
2023-02-22T20:06:03.252Z,4.57
2023-02-22T20:08:12.105Z,4.27
2023-02-22T20:10:22.311Z,4.20
2023-02-22T20:12:31.235Z,4.17
2023-02-22T20:14:41.150Z,4.13
2023-02-22T20:16:49.515Z,4.20
2023-02-22T20:18:58.158Z,4.30
2023-02-22T20:21:09.727Z,4.03
2023-02-22T20:23:18.763Z,3.57
2023-02-22T20:25:29.217Z,4.20
2023-02-22T20:27:38.096Z,4.37
2023-02-22T20:29:46.652Z,4.27
2023-02-22T20:31:56.846Z,4.00
2023-02-22T20:34:07.653Z,4.30
2023-02-22T20:36:18.515Z,4.00
2023-02-22T20:38:27.237Z,3.90
2023-02-22T20:40:37.883Z,4.10
2023-02-22T20:42:47.891Z,4.20
2023-02-22T20:45:01.940Z,3.63
2023-02-22T20:47:10.678Z,3.73
2023-02-22T20:49:21.635Z,3.60
2023-02-22T20:51:31.234Z,4.20
2023-02-22T20:53:42.083Z,3.43
2023-02-22T20:55:53.589Z,3.97
2023-02-22T20:58:02.519Z,4.20
2023-02-22T21:00:12.567Z,4.47
2023-02-22T21:02:21.457Z,3.37
2023-02-22T21:04:33.359Z,3.73
2023-02-22T21:06:42.050Z,3.70
2023-02-22T21:08:57.155Z,3.37
2023-02-22T21:11:12.829Z,3.37
2023-02-22T21:13:21.592Z,3.60
2023-02-22T21:15:30.573Z,3.57
2023-02-22T21:17:39.254Z,3.47
2023-02-22T21:19:47.575Z,3.73
2023-02-22T21:21:57.706Z,5.47
2023-02-22T21:24:06.870Z,3.90
2023-02-22T21:26:18.900Z,3.87
2023-02-22T21:28:42.555Z,3.90
2023-02-22T21:30:57.064Z,3.53
2023-02-22T21:33:06.854Z,3.60
2023-02-22T21:35:15.382Z,3.97
2023-02-22T21:37:24.319Z,4.23
2023-02-22T21:39:33.292Z,3.60
2023-02-22T21:41:44.005Z,3.63
2023-02-22T21:43:53.560Z,3.00
2023-02-22T21:46:04.536Z,4.07
2023-02-22T21:48:13.563Z,3.70
2023-02-22T21:50:25.916Z,4.00
2023-02-22T21:52:34.728Z,3.40
2023-02-22T21:54:43.249Z,3.30
2023-02-22T21:56:54.660Z,3.90
2023-02-22T21:59:05.523Z,3.70
2023-02-22T22:01:17.969Z,4.03
2023-02-22T22:03:27.601Z,3.73
2023-02-22T22:05:35.975Z,3.30
2023-02-22T22:07:44.819Z,3.67
2023-02-22T22:09:56.795Z,3.60
2023-02-22T22:12:10.302Z,4.13
2023-02-22T22:14:19.918Z,3.60
2023-02-22T22:16:30.481Z,4.00
2023-02-22T22:18:40.452Z,3.70
2023-02-22T22:20:52.101Z,3.20
2023-02-22T22:23:01.175Z,3.80
2023-02-22T22:25:10.396Z,3.97
2023-02-22T22:27:21.797Z,3.73
2023-02-22T22:29:30.441Z,3.23
2023-02-22T22:31:40.292Z,3.87
2023-02-22T22:33:49.731Z,3.07
2023-02-22T22:35:59.401Z,3.53
2023-02-22T22:38:09.609Z,3.17
2023-02-22T22:40:19.510Z,3.97
2023-02-22T22:42:29.578Z,3.90
2023-02-22T22:44:42.491Z,3.30
2023-02-22T22:46:53.993Z,3.53
2023-02-22T22:49:04.102Z,4.23
2023-02-22T22:51:15.148Z,3.73
2023-02-22T22:53:24.417Z,3.80
2023-02-22T22:55:33.650Z,3.40
2023-02-22T22:57:44.634Z,3.40
2023-02-22T22:59:54.403Z,2.97
2023-02-22T23:02:03.143Z,3.53
2023-02-22T23:04:16.577Z,3.73
2023-02-22T23:06:26.349Z,3.80
2023-02-22T23:08:43.288Z,3.37
2023-02-22T23:10:52.322Z,3.70
2023-02-22T23:13:04.239Z,3.80
2023-02-22T23:15:14.005Z,3.87
2023-02-22T23:17:31.565Z,3.60
2023-02-22T23:19:40.396Z,3.70
2023-02-22T23:21:50.365Z,3.70
2023-02-22T23:23:59.490Z,3.10
2023-02-22T23:26:18.046Z,3.10
2023-02-22T23:28:28.850Z,3.60
2023-02-22T23:30:39.755Z,3.17
2023-02-22T23:32:48.907Z,3.37
2023-02-22T23:34:58.082Z,3.43
2023-02-22T23:37:10.038Z,3.70
2023-02-22T23:39:21.741Z,3.77
2023-02-22T23:41:30.081Z,3.60
2023-02-22T23:43:41.416Z,3.63
2023-02-22T23:45:50.199Z,3.50
2023-02-22T23:48:01.807Z,3.87
2023-02-22T23:50:13.836Z,3.30
2023-02-22T23:52:24.620Z,3.60
2023-02-22T23:54:36.815Z,3.20
2023-02-22T23:56:47.437Z,3.53
2023-02-22T23:58:57.978Z,3.87
